AirNav   Air Wisconsin pilot careers
 
 430 users online  

3Y4 Woodbine Municipal Airport
Woodbine, Iowa, USA


FAA INFORMATION EFFECTIVE 04 JANUARY 2018

Location

FAA Identifier: 3Y4
Lat/Long: 41-44-09.9580N / 095-41-01.0220W
41-44.165967N / 095-41.017033W
41.7360994 / -95.6836172
(estimated)
Elevation: 1068 ft. / 325.5 m (surveyed)
Variation: 05E (1985)
From city: 1 mile E of WOODBINE, IA
Time zone: UTC -6 (UTC -5 during Daylight Saving Time)
Zip code: 51579

Airport Operations

Airport use: Open to the public
Activation date: 04/1960
Control tower: no
ARTCC: MINNEAPOLIS CENTER
FSS: FORT DODGE FLIGHT SERVICE STATION
NOTAMs facility: FOD (NOTAM-D service available)
Attendance: UNATNDD
Wind indicator: yes
Segmented circle: no
Lights: SS-SR

Airport Communications

CTAF: 122.9
WX AWOS-3 at HNR (18 nm SE): 118.325 (712-744-4400)

Nearby radio navigation aids

VOR radial/distance  VOR name  Freq  Var
OVRr356/34.2OMAHA VORTAC116.3008E

 
NDB name  Hdg/Dist  Freq  Var  ID
DENISON218/20.135004EDNS -.. -. ...

Airport Services

Airframe service: NONE
Powerplant service: NONE
Bottled oxygen: NONE
Bulk oxygen: NONE

Runway Information

Runway 17/35

Dimensions: 2045 x 95 ft. / 623 x 29 m
Surface: turf, in fair condition
Runway edge lights: low intensity
Runway edge markings: 17/35 EDGES MKD WITH YELLOW CONES; DSPLCD THLDS MKD WITH 3 YELLOW EACH SIDE.
RUNWAY 17  RUNWAY 35
Traffic pattern: leftleft
Displaced threshold: 455 ft.545 ft.
Obstructions: 89 ft. trees, 1330 ft. from runway, 110 ft. right of centerline, 14:1 slope to clear
APCH SLOPE 20:1 TO DSPLCD THLD.
102 ft. tree, 1520 ft. from runway, 45 ft. right of centerline, 14:1 slope to clear
APCH SLOPE 20:1 TO DSPLCD THLD.

Airport Ownership and Management from official FAA records

Ownership: Publicly-owned
Owner: CITY OF WOODBINE
517 WALKER ST
WOODBINE, IA 51579
Phone 712-647-2550
Manager: DENCIL HAMMACK
702 LINCOLNWAY STREET
WOODBINE, IA 51579-1032
Phone (712) 647-2443

Airport Operational Statistics

Aircraft based on the field: 3
Single engine airplanes: 2
Ultralights: 1
    
Aircraft operations: avg 42/month *
50% transient general aviation
50% local general aviation
* for 12-month period ending 24 August 2015

Additional Remarks

PLINE 165 FT EAST OF CNTRLN.
20' LGT POLES EAST EDGE OF HANGERS.

Instrument Procedures

There are no published instrument procedures at 3Y4.

Some nearby airports with instrument procedures:

KHNR - Harlan Municipal Airport (18 nm SE)
KDNS - Denison Municipal Airport (20 nm NE)
KTQE - Tekamah Municipal Airport (22 nm W)
KMEY - James G Whiting Memorial Field Airport (27 nm N)
KBTA - Blair Municipal Airport (27 nm SW)
 
Loc | Ops | Rwys | IFR | FBO | Links
Com | Nav | Svcs | Stats | Notes


 
Area around 3Y4 (Woodbine Municipal Airport)
 
Road maps at: MapQuest Bing Google
 
Aerial photo
No photo
 
Sectional chart

 
Airport distance calculator
Flying to Woodbine Municipal Airport? Find the distance to fly.

From to 3Y4

Sunrise and sunset
Times for 22-Jan-2018
 Local
(UTC-6)
 Zulu
(UTC)
Morning civil twilight07:1413:14
Sunrise07:4513:45
Sunset17:2423:24
Evening civil twilight17:5423:54

Current date and time
Zulu (UTC)  22-Jan-2018 06:28:36
Local (UTC-6)  22-Jan-2018 00:28:36
 
METAR
KHNR 
18nm SE 
220615Z AUTO 03017KT 10SM -RA OVC005 02/02 A2961 RMK AO2
KDNS 
20nm NE 
220615Z AUTO 05015G24KT 3SM BR OVC004 02/02 A2964 RMK AO2
KTQE 
22nm W 
220622Z AUTO 02021G28KT 3SM UP BR BKN008 OVC012 03/01 A2963 RMK AO2 PK WND 02028/0621 RAE0556UPB19SNB0556E19 CIG 006V010 P0001 T00280011
KOMA 
27nm S 
220552Z 01011G21KT 5SM -DZ BR OVC007 03/02 A2960 RMK AO2 RAE37DZB45 SLP029 P0011 60015 T00280022 10039 20028 400500028 58024
KBTA 
27nm SW 
220615Z AUTO 02020G24KT 2 1/2SM -RA OVC003 02/02 A2958 RMK AO2 T00230020
KCBF 
28nm S 
220615Z AUTO 01011G17KT 10SM OVC004 03/03 A2958 RMK AO2
KADU 
34nm E 
220615Z AUTO 03012G20KT 1 1/4SM BR OVC003 02/01 A2962 RMK AO2
KAIO 
35nm SE 
220555Z AUTO 04018G23KT 3/4SM BR OVC002 03/03 A2958 RMK AO2 P0001
TAF
KOMA 
27nm S 
220550Z 2206/2306 02013KT 3SM RA BR OVC007 TEMPO 2206/2210 1SM RA BR OVC003 FM221000 01015G23KT 1 1/2SM -RA BR OVC003 TEMPO 2210/2213 3/4SM RASN BR FM221300 35018G24KT 3/4SM -SN OVC003 FM221800 34025G34KT 1SM -SN BLSN OVC008 PROB30 2222/2304 3/4SM -SN OVC003
NOTAMs
Click for the latest NOTAMs
NOTAMs are issued by the DoD/FAA and will open in a separate window not controlled by AirNav.

 

 
 

Would you like to see your business listed on this page?

 If your business provides an interesting product or service to pilots, flight crews, aircraft, or users of the Woodbine Municipal Airport, you should consider listing it here.  To start the listing process, click on the button below
 
Add a business
 

Other Pages about Woodbine Municipal Airport

Page from the Iowa Airport Directory
 
Update a link
 
Copyright © AirNav, LLC. All rights reserved. Privacy Policy  Contact